LYBE/BEG METAR and TAF weather

Enter ICAO airport designator
Station Type Date Time Source
LYBE METAR 2024/05/25 01:30 UTC NOAA

LYBE 250130Z 04002KT 9999 MIFG NSC 14/14 Q1018 NOSIG


Station Type Date Time Source
LYBE Decoded METAR 2024/05/25 01:30 UTC NOAA

Beograd / Surcin, Serbia and Montenegro (LYBE) 44-49N 020-17E 99M
May 24, 2024 - 09:30 PM EDT / 2024.05.25 0130 UTC
Wind: from the NE (040 degrees) at 2 MPH (2 KT):0
Visibility: greater than 7 mile(s):0
Weather: shallow fog
Temperature: 57 F (14 C)
Dew Point: 57 F (14 C)
Relative Humidity: 100%
Pressure (altimeter): 30.06 in. Hg (1018 hPa)
ob: LYBE 250130Z 04002KT 9999 MIFG NSC 14/14 Q1018 NOSIG
cycle: 1

Station Type Date Time Source
LYBE TAF 2024/05/24 18:21 UTC NOAA